Terminal Aerodrome Forecast
Issued by NWS New Orleans/Baton Rouge, LA

Home | Current Version | Previous Version | Text Only | Print | Product List | Glossary On
Versions: 1 2 3 4 5 6 7 8 9 10 11 12 13 14 15 16 17 18 19 20 21 22 23
000
FTUS44 KLIX 190500 RRA
TAFNEW
TAF
KNEW 190540Z 1906/2006 09007KT P6SM BKN024 OVC060
     FM191200 07013KT 5SM -SHRA OVC025
      TEMPO 1915/1918 1SM SHRA BKN018
     FM191800 09012KT 1SM SHRA OVC020
     FM200300 08008KT 3SM SHRA OVC020=

USA.gov is the U.S. government's official web portal to all federal, state and local government web resources and services.